createdAt,value
2022-11-29T00:00:52.408Z,6.30
2022-11-29T00:03:19.730Z,6.30
2022-11-29T00:05:47.101Z,6.30
2022-11-29T00:08:14.385Z,6.30
2022-11-29T00:10:41.676Z,6.40
2022-11-29T00:13:09.095Z,6.30
2022-11-29T00:15:37.192Z,6.30
2022-11-29T00:18:05.004Z,6.20
2022-11-29T00:20:32.582Z,6.20
2022-11-29T00:22:59.859Z,6.20
2022-11-29T00:25:27.561Z,6.20
2022-11-29T00:27:54.856Z,6.20
2022-11-29T00:30:22.239Z,6.10
2022-11-29T00:32:49.526Z,6.10
2022-11-29T00:35:16.869Z,6.00
2022-11-29T00:37:44.172Z,6.10
2022-11-29T00:40:11.939Z,6.20
2022-11-29T00:42:39.260Z,6.20
2022-11-29T00:45:07.158Z,6.20
2022-11-29T00:47:34.810Z,6.20
2022-11-29T00:50:02.120Z,6.30
2022-11-29T00:52:29.412Z,6.10
2022-11-29T00:54:56.761Z,6.00
2022-11-29T00:57:24.022Z,6.00
2022-11-29T00:59:51.309Z,6.00
2022-11-29T01:02:18.629Z,6.00
2022-11-29T01:04:46.248Z,6.00
2022-11-29T01:07:13.846Z,5.90
2022-11-29T01:09:41.180Z,6.00
2022-11-29T01:12:08.467Z,6.10
2022-11-29T01:14:35.825Z,6.10
2022-11-29T01:17:03.172Z,6.00
2022-11-29T01:19:30.513Z,6.00
2022-11-29T01:21:58.333Z,6.00
2022-11-29T01:24:25.656Z,6.00
2022-11-29T01:26:52.960Z,6.10
2022-11-29T01:29:20.227Z,6.10
2022-11-29T01:31:47.618Z,6.20
2022-11-29T01:34:14.913Z,6.20
2022-11-29T01:36:42.255Z,6.20
2022-11-29T01:39:10.669Z,6.20
2022-11-29T01:41:38.003Z,6.20
2022-11-29T01:44:06.954Z,6.20
2022-11-29T01:46:35.897Z,6.10
2022-11-29T01:49:22.638Z,6.20
2022-11-29T01:51:52.017Z,6.20
2022-11-29T01:54:19.335Z,6.20
2022-11-29T01:56:47.278Z,6.20
2022-11-29T01:59:17.239Z,6.20
2022-11-29T02:01:44.575Z,6.20
2022-11-29T02:04:12.213Z,6.20
2022-11-29T02:06:39.594Z,6.20
2022-11-29T02:09:19.743Z,6.10
2022-11-29T02:11:56.172Z,6.00
2022-11-29T02:14:57.229Z,5.90
2022-11-29T02:17:33.112Z,6.00
2022-11-29T02:20:12.817Z,5.90
2022-11-29T02:23:04.706Z,5.90
2022-11-29T02:26:00.163Z,6.00
2022-11-29T02:28:30.536Z,6.10
2022-11-29T02:30:57.706Z,6.10
2022-11-29T02:34:03.758Z,6.10
2022-11-29T02:36:40.673Z,5.90
2022-11-29T02:39:29.868Z,5.90
2022-11-29T02:42:15.176Z,5.80
2022-11-29T02:45:16.498Z,5.80
2022-11-29T02:47:49.989Z,5.70
2022-11-29T02:50:24.794Z,5.80
2022-11-29T02:53:06.473Z,5.80
2022-11-29T02:55:41.777Z,5.90
2022-11-29T02:58:38.031Z,5.90
2022-11-29T03:01:17.933Z,5.90
2022-11-29T03:04:05.740Z,5.90
2022-11-29T03:06:36.328Z,5.90
2022-11-29T03:09:16.778Z,5.90
2022-11-29T03:12:07.008Z,5.90
2022-11-29T03:14:46.928Z,6.00
2022-11-29T03:17:25.821Z,6.10
2022-11-29T03:20:27.184Z,6.10
2022-11-29T03:23:16.322Z,5.90
2022-11-29T03:25:59.895Z,5.80
2022-11-29T03:29:01.191Z,5.90
2022-11-29T03:31:35.464Z,5.90
2022-11-29T03:34:40.423Z,6.00
2022-11-29T03:37:22.009Z,6.00
2022-11-29T03:40:05.868Z,5.90
2022-11-29T03:42:37.598Z,5.90
2022-11-29T03:45:13.425Z,6.00
2022-11-29T03:47:54.571Z,6.10
2022-11-29T03:50:25.413Z,6.00
2022-11-29T03:52:54.856Z,6.00
2022-11-29T03:55:22.268Z,5.90
2022-11-29T03:58:08.354Z,6.00
2022-11-29T04:00:47.955Z,6.10
2022-11-29T04:03:26.842Z,6.00
2022-11-29T04:06:06.088Z,5.90
2022-11-29T04:08:40.068Z,6.00
2022-11-29T04:11:31.663Z,6.10
2022-11-29T04:14:28.025Z,6.10
2022-11-29T04:17:19.908Z,6.10
2022-11-29T04:20:00.171Z,6.10
2022-11-29T04:22:36.688Z,6.10
2022-11-29T04:25:22.112Z,6.10
2022-11-29T04:28:11.264Z,6.20
2022-11-29T04:31:02.010Z,6.20
2022-11-29T04:33:41.351Z,6.30
2022-11-29T04:36:33.530Z,6.20
2022-11-29T04:39:21.804Z,6.30
2022-11-29T04:42:20.249Z,6.20
2022-11-29T04:45:06.058Z,6.20
2022-11-29T04:47:45.476Z,6.10
2022-11-29T04:50:31.262Z,6.10
2022-11-29T04:53:13.594Z,6.10
2022-11-29T04:56:06.087Z,6.00
2022-11-29T04:58:44.670Z,6.10
2022-11-29T05:01:18.254Z,6.00
2022-11-29T05:04:14.479Z,6.00
2022-11-29T05:07:02.327Z,6.10
2022-11-29T05:09:54.631Z,6.00
2022-11-29T05:12:35.423Z,6.00
2022-11-29T05:15:29.964Z,6.10
2022-11-29T05:18:08.750Z,6.10
2022-11-29T05:21:04.217Z,6.10
2022-11-29T05:24:04.878Z,6.20
2022-11-29T05:26:44.191Z,6.20
2022-11-29T05:29:12.673Z,6.10
2022-11-29T05:31:51.571Z,6.20
2022-11-29T05:34:29.010Z,6.10
2022-11-29T05:37:31.002Z,6.10
2022-11-29T05:40:13.350Z,6.20
2022-11-29T05:42:49.767Z,6.20
2022-11-29T05:45:23.072Z,6.20
2022-11-29T05:47:52.945Z,6.20
2022-11-29T05:50:37.506Z,6.20
2022-11-29T05:53:30.201Z,6.10
2022-11-29T05:56:03.382Z,6.20
2022-11-29T05:59:12.132Z,6.10
2022-11-29T06:01:45.217Z,6.10
2022-11-29T06:04:46.206Z,6.10
2022-11-29T06:07:19.826Z,6.10
2022-11-29T06:10:01.982Z,6.10
2022-11-29T06:12:31.915Z,6.20
2022-11-29T06:15:23.793Z,6.20
2022-11-29T06:18:08.376Z,6.20
2022-11-29T06:20:54.537Z,6.20
2022-11-29T06:23:59.772Z,6.20
2022-11-29T06:27:03.819Z,6.20
2022-11-29T06:29:49.220Z,6.20
2022-11-29T06:32:32.940Z,6.20
2022-11-29T06:35:32.940Z,6.10
2022-11-29T06:38:01.176Z,6.10
2022-11-29T06:40:28.680Z,6.10
2022-11-29T06:42:56.024Z,6.00
2022-11-29T06:45:23.848Z,6.00
2022-11-29T06:48:04.891Z,6.00
2022-11-29T06:51:05.541Z,6.00
2022-11-29T06:53:44.260Z,6.10
2022-11-29T06:56:29.820Z,6.10
2022-11-29T06:59:11.513Z,6.20
2022-11-29T07:01:44.031Z,6.20
2022-11-29T07:04:40.000Z,6.20
2022-11-29T07:07:20.235Z,6.20
2022-11-29T07:09:49.365Z,6.30
2022-11-29T07:12:17.423Z,6.20
2022-11-29T07:14:45.645Z,6.20
2022-11-29T07:17:41.685Z,6.10
2022-11-29T07:20:20.874Z,6.20
2022-11-29T07:22:55.321Z,6.20
2022-11-29T07:25:41.716Z,6.30
2022-11-29T07:28:34.201Z,6.20
2022-11-29T07:31:10.482Z,6.20
2022-11-29T07:34:01.304Z,6.10
2022-11-29T07:36:41.885Z,6.00
2022-11-29T07:39:51.057Z,6.00
2022-11-29T07:42:18.324Z,6.10
2022-11-29T07:44:55.054Z,6.10
2022-11-29T07:47:22.363Z,6.10
2022-11-29T07:49:49.698Z,6.00
2022-11-29T07:52:16.959Z,6.00
2022-11-29T07:54:44.556Z,6.10
2022-11-29T07:57:11.993Z,6.00
2022-11-29T07:59:39.313Z,6.10
2022-11-29T08:02:11.463Z,6.20
2022-11-29T08:04:44.423Z,6.10
2022-11-29T08:07:12.182Z,6.20
2022-11-29T08:09:39.676Z,6.30
2022-11-29T08:12:07.141Z,6.20
2022-11-29T08:14:34.397Z,6.20
2022-11-29T08:17:01.726Z,6.30
2022-11-29T08:19:29.002Z,6.30
2022-11-29T08:21:56.299Z,6.30
2022-11-29T08:24:23.615Z,6.20
2022-11-29T08:26:50.904Z,6.30
2022-11-29T08:29:18.395Z,6.20
2022-11-29T08:31:45.761Z,6.30
2022-11-29T08:34:13.074Z,6.30
2022-11-29T08:36:40.349Z,6.30
2022-11-29T08:39:09.605Z,6.20
2022-11-29T08:41:37.157Z,6.10
2022-11-29T08:44:07.809Z,6.00
2022-11-29T08:46:53.513Z,6.10
2022-11-29T08:49:20.924Z,6.20
2022-11-29T08:51:48.285Z,6.30
2022-11-29T08:54:15.641Z,6.30
2022-11-29T08:57:30.958Z,6.40
2022-11-29T08:59:30.259Z,6.40
2022-11-29T09:01:57.580Z,6.40
2022-11-29T09:04:24.853Z,6.50
2022-11-29T09:06:52.154Z,6.40
2022-11-29T09:09:19.434Z,6.50
2022-11-29T09:11:49.436Z,6.60
2022-11-29T09:14:17.349Z,6.60
2022-11-29T09:16:44.679Z,6.50
2022-11-29T09:19:13.848Z,6.60
2022-11-29T09:21:41.175Z,6.60
2022-11-29T09:24:09.341Z,6.60
2022-11-29T09:26:37.806Z,6.70
2022-11-29T09:29:05.805Z,6.70
2022-11-29T09:31:33.320Z,6.60
2022-11-29T09:34:00.653Z,6.60
2022-11-29T09:36:29.458Z,6.70
2022-11-29T09:38:57.598Z,6.50
2022-11-29T09:41:58.949Z,6.60
2022-11-29T09:44:54.382Z,6.70
2022-11-29T09:47:33.707Z,6.80
2022-11-29T09:50:19.833Z,6.70
2022-11-29T09:53:13.372Z,6.70
2022-11-29T09:56:12.651Z,6.70
2022-11-29T09:59:01.848Z,6.70
2022-11-29T10:01:33.137Z,6.70
2022-11-29T10:04:05.515Z,6.50
2022-11-29T10:06:38.908Z,6.50
2022-11-29T10:09:33.945Z,6.70
2022-11-29T10:12:07.406Z,6.60
2022-11-29T10:14:39.262Z,6.80
2022-11-29T10:17:19.383Z,6.90
2022-11-29T10:19:48.277Z,6.80
2022-11-29T10:22:53.610Z,6.90
2022-11-29T10:25:25.407Z,7.00
2022-11-29T10:27:52.821Z,7.10
2022-11-29T10:30:20.478Z,7.20
2022-11-29T10:32:51.302Z,7.30
2022-11-29T10:35:19.508Z,7.30
2022-11-29T10:38:07.639Z,7.30
2022-11-29T10:40:35.085Z,7.30
2022-11-29T10:43:02.478Z,7.30
2022-11-29T10:45:46.050Z,7.30
2022-11-29T10:48:16.860Z,7.30
2022-11-29T10:50:45.113Z,7.40
2022-11-29T10:53:14.483Z,7.40
2022-11-29T10:56:06.446Z,7.50
2022-11-29T10:58:33.818Z,7.50
2022-11-29T11:01:08.461Z,7.50
2022-11-29T11:03:53.128Z,7.50
2022-11-29T11:06:21.388Z,7.40
2022-11-29T11:08:52.538Z,7.40
2022-11-29T11:11:36.109Z,7.50
2022-11-29T11:14:22.467Z,7.50
2022-11-29T11:16:49.927Z,7.60
2022-11-29T11:19:33.530Z,7.60
2022-11-29T11:22:04.101Z,7.60
2022-11-29T11:24:32.958Z,7.70
2022-11-29T11:27:00.437Z,7.70
2022-11-29T11:29:45.934Z,7.60
2022-11-29T11:32:18.970Z,7.60
2022-11-29T11:34:57.667Z,7.70
2022-11-29T11:37:27.067Z,7.80
2022-11-29T11:39:57.069Z,7.70
2022-11-29T11:42:37.936Z,7.80
2022-11-29T11:45:11.296Z,7.70
2022-11-29T11:48:00.040Z,7.80
2022-11-29T11:50:34.286Z,7.80
2022-11-29T11:53:36.387Z,7.80
2022-11-29T11:56:08.213Z,7.80
2022-11-29T11:58:45.184Z,7.80
2022-11-29T12:01:12.394Z,7.80
2022-11-29T12:03:49.996Z,7.90
2022-11-29T12:06:38.513Z,7.70
2022-11-29T12:09:19.420Z,7.70
2022-11-29T12:12:07.561Z,7.80
2022-11-29T12:14:58.800Z,7.80
2022-11-29T12:17:35.538Z,7.80
2022-11-29T12:20:24.558Z,7.80
2022-11-29T12:23:02.974Z,7.70
2022-11-29T12:25:34.146Z,7.70
2022-11-29T12:28:01.500Z,7.60
2022-11-29T12:30:28.870Z,7.50
2022-11-29T12:33:37.927Z,7.50
2022-11-29T12:36:20.130Z,7.50
2022-11-29T12:39:20.661Z,7.60
2022-11-29T12:42:30.053Z,7.70
2022-11-29T12:45:15.787Z,7.70
2022-11-29T12:48:08.889Z,7.90
2022-11-29T12:51:10.106Z,8.00
2022-11-29T12:53:58.389Z,8.00
2022-11-29T12:56:33.493Z,8.00
2022-11-29T12:59:39.529Z,7.80
2022-11-29T13:02:15.630Z,7.80
2022-11-29T13:04:59.888Z,7.60
2022-11-29T13:07:30.551Z,7.50
2022-11-29T13:10:19.326Z,7.60
2022-11-29T13:13:00.383Z,7.60
2022-11-29T13:15:42.797Z,7.60
2022-11-29T13:18:25.886Z,7.50
2022-11-29T13:21:09.387Z,7.40
2022-11-29T13:24:07.809Z,7.50
2022-11-29T13:26:33.832Z,7.40
2022-11-29T13:29:01.146Z,7.30
2022-11-29T13:31:28.841Z,7.20
2022-11-29T13:34:11.209Z,7.20
2022-11-29T13:36:59.714Z,7.20
2022-11-29T13:40:09.541Z,7.30
2022-11-29T13:42:45.389Z,7.40
2022-11-29T13:45:18.505Z,7.50
2022-11-29T13:47:53.780Z,7.60
2022-11-29T13:50:44.030Z,7.40
2022-11-29T13:53:24.768Z,7.40
2022-11-29T13:56:02.030Z,7.30
2022-11-29T13:58:29.431Z,7.40
2022-11-29T14:01:06.895Z,7.40
2022-11-29T14:03:37.082Z,7.50
2022-11-29T14:06:18.720Z,7.50
2022-11-29T14:09:17.707Z,7.50
2022-11-29T14:11:42.454Z,7.60
2022-11-29T14:14:18.754Z,7.60
2022-11-29T14:17:05.562Z,7.50
2022-11-29T14:19:34.296Z,7.50
2022-11-29T14:22:01.819Z,7.60
2022-11-29T14:24:32.121Z,7.40
2022-11-29T14:27:14.305Z,7.40
2022-11-29T14:29:47.733Z,7.30
2022-11-29T14:32:52.215Z,7.10
2022-11-29T14:35:43.647Z,6.90
2022-11-29T14:38:47.975Z,6.80
2022-11-29T14:41:49.174Z,6.90
2022-11-29T14:44:28.199Z,6.90
2022-11-29T14:47:06.866Z,6.70
2022-11-29T14:49:41.814Z,6.80
2022-11-29T14:52:10.479Z,6.90
2022-11-29T14:54:54.691Z,6.90
2022-11-29T14:57:54.183Z,7.00
2022-11-29T15:00:26.492Z,7.00
2022-11-29T15:02:57.281Z,7.00
2022-11-29T15:05:35.666Z,7.00
2022-11-29T15:08:32.158Z,7.00
2022-11-29T15:11:09.731Z,6.90
2022-11-29T15:13:38.780Z,6.90
2022-11-29T15:16:12.991Z,6.80
2022-11-29T15:18:59.411Z,6.90
2022-11-29T15:21:57.829Z,6.80
2022-11-29T15:24:28.720Z,6.80
2022-11-29T15:26:57.039Z,6.80
2022-11-29T15:29:24.509Z,6.70
2022-11-29T15:31:59.234Z,6.70
2022-11-29T15:34:31.524Z,6.70
2022-11-29T15:36:59.759Z,6.70
2022-11-29T15:39:35.606Z,6.50
2022-11-29T15:42:18.282Z,6.40
2022-11-29T15:44:49.098Z,6.40
2022-11-29T15:47:17.471Z,6.30
2022-11-29T15:49:44.848Z,6.40
2022-11-29T15:52:20.309Z,6.40
2022-11-29T15:54:50.154Z,6.40
2022-11-29T15:57:41.547Z,6.40
2022-11-29T16:00:12.408Z,6.40
2022-11-29T16:02:40.679Z,6.40
2022-11-29T16:05:14.522Z,6.40
2022-11-29T16:07:41.925Z,6.40
2022-11-29T16:10:18.363Z,6.40
2022-11-29T16:13:24.888Z,6.40
2022-11-29T16:16:15.402Z,6.30
2022-11-29T16:18:44.045Z,6.30
2022-11-29T16:21:24.770Z,6.30
2022-11-29T16:23:52.239Z,6.30
2022-11-29T16:26:26.198Z,6.30
2022-11-29T16:28:54.084Z,6.30
2022-11-29T16:31:23.173Z,6.40
2022-11-29T16:33:51.954Z,6.30
2022-11-29T16:36:22.294Z,6.30
2022-11-29T16:38:54.149Z,6.30
2022-11-29T16:41:25.489Z,6.30
2022-11-29T16:43:55.068Z,6.30
2022-11-29T16:46:22.458Z,6.30
2022-11-29T16:48:49.908Z,6.20
2022-11-29T16:51:49.686Z,6.10
2022-11-29T16:54:21.262Z,6.00
2022-11-29T16:56:52.257Z,6.00
2022-11-29T16:59:26.578Z,5.90
2022-11-29T17:01:56.349Z,5.90
2022-11-29T17:04:25.059Z,6.00
2022-11-29T17:06:56.313Z,5.90
2022-11-29T17:09:28.387Z,5.90
2022-11-29T17:11:55.796Z,5.90
2022-11-29T17:14:23.139Z,5.80
2022-11-29T17:16:51.755Z,5.90
2022-11-29T17:19:20.613Z,5.70
2022-11-29T17:21:47.959Z,5.70
2022-11-29T17:24:16.689Z,5.80
2022-11-29T17:26:44.430Z,5.70
2022-11-29T17:29:12.490Z,5.80
2022-11-29T17:31:39.866Z,5.80
2022-11-29T17:34:07.300Z,5.80
2022-11-29T17:36:34.603Z,5.70
2022-11-29T17:39:02.331Z,5.70
2022-11-29T17:41:30.443Z,5.80
2022-11-29T17:43:57.997Z,5.80
2022-11-29T17:46:35.892Z,5.70
2022-11-29T17:49:04.994Z,5.70
2022-11-29T17:54:20.843Z,5.50
2022-11-29T17:56:48.162Z,5.60
2022-11-29T17:59:15.520Z,5.60
2022-11-29T18:01:42.901Z,5.60
2022-11-29T18:04:10.298Z,5.70
2022-11-29T18:06:39.922Z,5.60
2022-11-29T18:09:08.599Z,5.60
2022-11-29T18:11:45.298Z,5.60
2022-11-29T18:14:15.974Z,5.60
2022-11-29T18:16:45.142Z,5.60
2022-11-29T18:19:14.214Z,5.60
2022-11-29T18:21:41.545Z,5.60
2022-11-29T18:24:09.021Z,5.70
2022-11-29T18:26:36.980Z,5.70
2022-11-29T18:29:05.454Z,5.70
2022-11-29T18:31:34.365Z,5.70
2022-11-29T18:34:02.706Z,5.70
2022-11-29T18:36:32.209Z,5.70
2022-11-29T18:39:05.456Z,5.70
2022-11-29T18:41:32.856Z,5.60
2022-11-29T18:44:00.912Z,5.70
2022-11-29T18:46:32.292Z,5.70
2022-11-29T18:49:01.009Z,5.70
2022-11-29T18:51:29.332Z,5.70
2022-11-29T18:53:57.252Z,5.70
2022-11-29T18:56:25.965Z,5.60
2022-11-29T18:58:58.614Z,5.60
2022-11-29T19:01:27.873Z,5.60
2022-11-29T19:03:57.831Z,5.60
2022-11-29T19:06:30.801Z,5.60
2022-11-29T19:09:03.226Z,5.60
2022-11-29T19:11:31.299Z,5.60
2022-11-29T19:14:03.978Z,5.60
2022-11-29T19:16:32.715Z,5.40
2022-11-29T19:19:00.367Z,5.40
2022-11-29T19:21:28.821Z,5.40
2022-11-29T19:23:57.740Z,5.40
2022-11-29T19:26:26.650Z,5.40
2022-11-29T19:28:54.089Z,5.40
2022-11-29T19:31:24.811Z,5.40
2022-11-29T19:33:52.772Z,5.40
2022-11-29T19:36:24.560Z,5.40
2022-11-29T19:38:54.215Z,5.40
2022-11-29T19:41:23.597Z,5.50
2022-11-29T19:43:51.147Z,5.50
2022-11-29T19:46:22.890Z,5.50
2022-11-29T19:48:53.944Z,5.60
2022-11-29T19:51:21.522Z,5.60
2022-11-29T19:53:52.034Z,5.60
2022-11-29T19:56:20.486Z,5.40
2022-11-29T19:58:48.957Z,5.50
2022-11-29T20:01:22.376Z,5.50
2022-11-29T20:03:49.818Z,5.60
2022-11-29T20:06:17.677Z,5.60
2022-11-29T20:08:45.189Z,5.50
2022-11-29T20:11:22.690Z,5.50
2022-11-29T20:14:00.235Z,5.50
2022-11-29T20:16:28.011Z,5.40
2022-11-29T20:18:55.530Z,5.40
2022-11-29T20:21:32.054Z,5.20
2022-11-29T20:24:04.690Z,5.20
2022-11-29T20:26:33.177Z,5.20
2022-11-29T20:29:01.763Z,5.20
2022-11-29T20:31:29.148Z,5.30
2022-11-29T20:33:57.452Z,5.30
2022-11-29T20:36:37.818Z,5.30
2022-11-29T20:39:32.883Z,5.30
2022-11-29T20:42:34.078Z,5.30
2022-11-29T20:45:06.349Z,5.30
2022-11-29T20:47:40.933Z,5.30
2022-11-29T20:50:23.202Z,5.30
2022-11-29T20:53:15.730Z,5.30
2022-11-29T20:55:48.028Z,5.30
2022-11-29T20:58:16.033Z,5.30
2022-11-29T21:00:43.368Z,5.30
2022-11-29T21:03:17.209Z,5.30
2022-11-29T21:05:44.694Z,5.30
2022-11-29T21:08:12.790Z,5.30
2022-11-29T21:10:40.145Z,5.30
2022-11-29T21:13:07.827Z,5.30
2022-11-29T21:15:35.484Z,5.30
2022-11-29T21:18:02.995Z,5.30
2022-11-29T21:20:30.608Z,5.30
2022-11-29T21:23:02.824Z,5.20
2022-11-29T21:25:33.209Z,5.30
2022-11-29T21:28:00.654Z,5.30
2022-11-29T21:30:28.060Z,5.20
2022-11-29T21:32:55.725Z,5.20
2022-11-29T21:35:23.135Z,5.20
2022-11-29T21:37:50.546Z,5.20
2022-11-29T21:40:17.898Z,5.30
2022-11-29T21:42:45.221Z,5.30
2022-11-29T21:45:15.572Z,5.20
2022-11-29T21:47:44.102Z,5.20
2022-11-29T21:50:12.715Z,5.20
2022-11-29T21:52:40.311Z,5.20
2022-11-29T21:55:08.100Z,5.20
2022-11-29T21:57:35.671Z,5.20
2022-11-29T22:00:03.811Z,5.20
2022-11-29T22:02:31.909Z,5.10
2022-11-29T22:04:59.314Z,5.10
2022-11-29T22:07:27.273Z,5.10
2022-11-29T22:09:54.586Z,5.10
2022-11-29T22:12:36.984Z,5.00
2022-11-29T22:15:04.749Z,5.00
2022-11-29T22:17:32.069Z,5.00
2022-11-29T22:19:59.353Z,4.90
2022-11-29T22:22:28.282Z,4.90
2022-11-29T22:24:55.714Z,4.80
2022-11-29T22:27:23.062Z,4.80
2022-11-29T22:29:50.405Z,4.70
2022-11-29T22:32:17.731Z,4.70
2022-11-29T22:34:45.378Z,4.60
2022-11-29T22:37:12.838Z,4.60
2022-11-29T22:39:40.177Z,4.60
2022-11-29T22:42:07.765Z,4.60
2022-11-29T22:44:35.067Z,4.60
2022-11-29T22:47:02.468Z,4.60
2022-11-29T22:49:30.060Z,4.60
2022-11-29T22:51:57.400Z,4.50
2022-11-29T22:54:24.708Z,4.50
2022-11-29T22:56:52.460Z,4.50
2022-11-29T22:59:19.777Z,4.40
2022-11-29T23:01:47.222Z,4.50
2022-11-29T23:04:14.675Z,4.50
2022-11-29T23:06:43.298Z,4.50
2022-11-29T23:09:20.223Z,4.50
2022-11-29T23:11:51.810Z,4.40
2022-11-29T23:14:19.578Z,4.50
2022-11-29T23:16:46.951Z,4.50
2022-11-29T23:19:16.320Z,4.50
2022-11-29T23:21:45.767Z,4.40
2022-11-29T23:24:14.232Z,4.20
2022-11-29T23:26:43.701Z,4.10
2022-11-29T23:29:13.089Z,4.00
2022-11-29T23:31:40.538Z,4.10
2022-11-29T23:34:07.997Z,4.00
2022-11-29T23:36:35.300Z,4.10
2022-11-29T23:39:05.121Z,3.90
2022-11-29T23:41:33.307Z,4.00
2022-11-29T23:44:00.664Z,4.10
2022-11-29T23:46:27.954Z,4.10
2022-11-29T23:48:55.374Z,4.10
2022-11-29T23:51:22.687Z,4.10
2022-11-29T23:53:53.399Z,4.00
2022-11-29T23:56:21.093Z,4.00
2022-11-29T23:58:48.421Z,3.90
